Time;durP1;ratioP1;P1;durP2;ratioP2;P2;SDS_P1;SDS_P2;PMS_P1;PMS_P2;Temp;Humidity;BMP_temperature;BMP_pressure;BME280_temperature;BME280_humidity;BME280_pressure;Samples;Min_cycle;Max_cycle;Signal;HPM_P1;HPM_P2
2023/09/12 00:01:17;;;;;;;33.78;23.27;;;;;;;;;;5032654;28;20033;-75
2023/09/12 00:03:44;;;;;;;39.40;24.30;;;;;;;;;;5032739;28;20052;-75
2023/09/12 00:06:12;;;;;;;33.63;23.42;;;;;;;;;;5032935;28;20112;-75
2023/09/12 00:08:38;;;;;;;35.38;24.00;;;;;;;;;;5032643;28;20578;-74
2023/09/12 00:11:04;;;;;;;38.95;25.27;;;;;;;;;;5032729;28;20104;-75
2023/09/12 00:13:31;;;;;;;34.17;24.05;;;;;;;;;;5032813;28;20076;-74
2023/09/12 00:15:57;;;;;;;36.13;23.00;;;;;;;;;;5032562;28;20017;-75
2023/09/12 00:18:23;;;;;;;35.45;24.38;;;;;;;;;;5032828;28;20021;-75
2023/09/12 00:20:50;;;;;;;39.53;24.88;;;;;;;;;;5032716;28;20018;-74
2023/09/12 00:23:16;;;;;;;35.10;23.00;;;;;;;;;;5032848;28;20395;-75
2023/09/12 00:25:42;;;;;;;35.42;24.23;;;;;;;;;;5032863;28;20419;-75
2023/09/12 00:28:08;;;;;;;43.22;24.55;;;;;;;;;;5032764;28;20456;-75
2023/09/12 00:30:34;;;;;;;43.03;23.92;;;;;;;;;;5032579;28;20022;-74
2023/09/12 00:33:00;;;;;;;41.70;24.95;;;;;;;;;;5032663;28;20030;-74
2023/09/12 00:35:26;;;;;;;39.85;24.30;;;;;;;;;;5032570;28;20033;-74
2023/09/12 00:37:52;;;;;;;37.53;24.85;;;;;;;;;;5032821;28;20032;-75
2023/09/12 00:40:18;;;;;;;37.00;23.98;;;;;;;;;;5032793;28;20368;-75
2023/09/12 00:42:44;;;;;;;42.45;26.20;;;;;;;;;;5032645;28;20029;-74
2023/09/12 00:45:10;;;;;;;45.17;26.92;;;;;;;;;;5032465;28;20026;-75
2023/09/12 00:47:38;;;;;;;44.83;26.08;;;;;;;;;;5032438;28;20129;-75
2023/09/12 00:50:05;;;;;;;43.55;26.70;;;;;;;;;;5032963;28;20026;-74
2023/09/12 00:52:33;;;;;;;42.40;25.80;;;;;;;;;;5033197;28;20021;-75
2023/09/12 00:54:59;;;;;;;42.53;24.90;;;;;;;;;;5035660;28;20049;-75
2023/09/12 00:57:26;;;;;;;42.50;26.88;;;;;;;;;;5036344;28;20356;-74
2023/09/12 00:59:53;;;;;;;43.92;26.42;;;;;;;;;;5036100;28;20101;-74
2023/09/12 01:02:20;;;;;;;45.58;26.17;;;;;;;;;;5036123;28;20059;-75
2023/09/12 01:04:46;;;;;;;46.08;25.92;;;;;;;;;;5035925;28;20064;-74
2023/09/12 01:07:12;;;;;;;42.65;26.35;;;;;;;;;;5035702;28;20503;-75
2023/09/12 01:09:39;;;;;;;45.97;25.40;;;;;;;;;;5036242;28;20022;-74
2023/09/12 01:12:05;;;;;;;44.55;27.02;;;;;;;;;;5035742;28;20096;-74
2023/09/12 01:14:31;;;;;;;42.67;25.70;;;;;;;;;;5035643;28;20033;-75
2023/09/12 01:16:57;;;;;;;44.55;26.45;;;;;;;;;;5035415;28;20034;-74
2023/09/12 01:19:24;;;;;;;41.15;24.52;;;;;;;;;;5035492;28;20022;-74
2023/09/12 01:22:16;;;;;;;40.28;25.85;;;;;;;;;;5035328;28;20560;-75
2023/09/12 01:24:46;;;;;;;40.95;25.40;;;;;;;;;;5033288;28;20037;-74
2023/09/12 01:27:22;;;;;;;40.40;25.17;;;;;;;;;;5035502;28;20034;-74
2023/09/12 01:29:51;;;;;;;40.13;24.70;;;;;;;;;;5035257;28;20482;-74
2023/09/12 01:32:18;;;;;;;45.07;26.80;;;;;;;;;;5035560;28;20052;-74
2023/09/12 01:34:44;;;;;;;40.75;24.52;;;;;;;;;;5035442;28;20079;-74
2023/09/12 01:37:10;;;;;;;35.40;23.42;;;;;;;;;;5035438;28;20029;-74
2023/09/12 01:39:36;;;;;;;36.40;24.08;;;;;;;;;;5035230;28;20036;-75
2023/09/12 01:42:03;;;;;;;34.33;23.08;;;;;;;;;;5035162;28;20083;-74
2023/09/12 01:44:29;;;;;;;41.78;24.52;;;;;;;;;;5034796;28;20080;-75
2023/09/12 01:46:58;;;;;;;35.05;23.45;;;;;;;;;;5034839;28;20029;-74
2023/09/12 01:49:25;;;;;;;35.63;22.90;;;;;;;;;;5034891;28;20149;-74
2023/09/12 01:51:52;;;;;;;36.28;23.20;;;;;;;;;;5034904;28;20092;-75
2023/09/12 01:54:19;;;;;;;30.10;20.05;;;;;;;;;;5034501;28;20025;-75
2023/09/12 01:56:45;;;;;;;34.45;21.92;;;;;;;;;;5034670;28;20104;-74
2023/09/12 01:59:11;;;;;;;39.05;23.35;;;;;;;;;;5034795;28;20029;-75
2023/09/12 02:01:38;;;;;;;36.58;23.55;;;;;;;;;;5034690;28;20047;-75
2023/09/12 02:04:08;;;;;;;38.17;23.73;;;;;;;;;;5034558;28;20026;-74
2023/09/12 02:06:34;;;;;;;36.53;23.73;;;;;;;;;;5034742;28;20399;-76
2023/09/12 02:09:00;;;;;;;41.70;24.33;;;;;;;;;;5034549;28;20022;-76
2023/09/12 02:11:27;;;;;;;34.42;22.45;;;;;;;;;;5034380;28;20027;-76
2023/09/12 02:13:54;;;;;;;36.60;21.92;;;;;;;;;;5034243;28;20095;-76
2023/09/12 02:16:20;;;;;;;34.15;20.55;;;;;;;;;;5034059;28;20040;-76
2023/09/12 02:18:46;;;;;;;22.95;15.80;;;;;;;;;;5034073;28;20436;-76
2023/09/12 02:21:13;;;;;;;20.48;13.93;;;;;;;;;;5033917;28;20060;-76
2023/09/12 02:23:39;;;;;;;19.23;13.38;;;;;;;;;;5034117;28;20068;-76
2023/09/12 02:26:05;;;;;;;19.83;13.70;;;;;;;;;;5033847;28;20056;-76
2023/09/12 02:28:31;;;;;;;18.08;12.93;;;;;;;;;;5033613;28;20045;-76
2023/09/12 02:30:56;;;;;;;20.90;13.63;;;;;;;;;;5033768;28;20025;-76
2023/09/12 02:33:22;;;;;;;20.35;14.85;;;;;;;;;;5033649;28;20026;-75
2023/09/12 02:35:48;;;;;;;22.77;15.35;;;;;;;;;;5033546;28;20375;-75
2023/09/12 02:38:14;;;;;;;25.67;17.17;;;;;;;;;;5033603;28;20037;-76
2023/09/12 02:40:40;;;;;;;26.75;16.92;;;;;;;;;;5033493;28;20474;-76
2023/09/12 02:43:06;;;;;;;25.48;17.30;;;;;;;;;;5033497;28;20026;-76
2023/09/12 02:45:32;;;;;;;32.92;19.63;;;;;;;;;;5033599;28;20021;-76
2023/09/12 02:47:58;;;;;;;32.10;20.27;;;;;;;;;;5033655;28;20064;-76
2023/09/12 02:50:24;;;;;;;34.90;20.45;;;;;;;;;;5033430;28;20064;-76
2023/09/12 02:52:51;;;;;;;39.63;23.00;;;;;;;;;;5033462;28;20419;-76
2023/09/12 02:55:17;;;;;;;38.85;21.23;;;;;;;;;;5033314;28;20106;-76
2023/09/12 02:57:43;;;;;;;37.30;21.35;;;;;;;;;;5033179;28;20029;-76
2023/09/12 03:00:10;;;;;;;41.22;22.05;;;;;;;;;;5033370;28;20447;-75
2023/09/12 03:02:36;;;;;;;39.08;23.23;;;;;;;;;;5033321;28;20017;-76
2023/09/12 03:05:02;;;;;;;33.63;21.35;;;;;;;;;;5032995;28;20048;-75
2023/09/12 03:07:30;;;;;;;35.97;21.70;;;;;;;;;;5033070;28;20040;-76
2023/09/12 03:09:56;;;;;;;35.13;22.20;;;;;;;;;;5033254;28;20464;-76
2023/09/12 03:12:22;;;;;;;40.45;23.13;;;;;;;;;;5032949;28;20029;-76
2023/09/12 03:14:48;;;;;;;38.03;22.83;;;;;;;;;;5032490;28;20104;-75
2023/09/12 03:17:14;;;;;;;44.25;24.67;;;;;;;;;;5032531;28;20033;-75
2023/09/12 03:19:40;;;;;;;44.05;24.88;;;;;;;;;;5032774;28;20029;-76
2023/09/12 03:22:06;;;;;;;45.97;24.42;;;;;;;;;;5032999;28;20025;-76
2023/09/12 03:24:32;;;;;;;43.47;23.27;;;;;;;;;;5032759;28;20036;-76
2023/09/12 03:26:58;;;;;;;38.80;24.60;;;;;;;;;;5032821;28;20652;-76
2023/09/12 03:29:24;;;;;;;39.50;24.05;;;;;;;;;;5032777;28;20059;-76
2023/09/12 03:31:50;;;;;;;42.58;25.45;;;;;;;;;;5032712;28;20452;-75
2023/09/12 03:34:16;;;;;;;42.88;25.15;;;;;;;;;;5032676;28;20026;-75
2023/09/12 03:36:42;;;;;;;43.25;23.75;;;;;;;;;;5032733;28;20025;-75
2023/09/12 03:39:08;;;;;;;50.15;25.67;;;;;;;;;;5032581;28;20104;-75
2023/09/12 03:41:35;;;;;;;46.35;26.15;;;;;;;;;;5032806;28;20049;-76
2023/09/12 03:44:02;;;;;;;44.30;24.80;;;;;;;;;;5032677;28;20666;-75
2023/09/12 03:46:28;;;;;;;49.58;26.52;;;;;;;;;;5032511;28;20017;-74
2023/09/12 03:48:54;;;;;;;53.63;27.17;;;;;;;;;;5032685;28;20018;-75
2023/09/12 03:51:20;;;;;;;58.97;27.38;;;;;;;;;;5032588;28;20567;-75
2023/09/12 03:53:47;;;;;;;60.17;29.83;;;;;;;;;;5032691;28;20025;-75
2023/09/12 03:56:14;;;;;;;73.45;31.13;;;;;;;;;;5032261;28;20128;-76
2023/09/12 03:58:40;;;;;;;79.25;33.03;;;;;;;;;;5032470;28;20073;-76
2023/09/12 04:01:06;;;;;;;97.75;36.33;;;;;;;;;;5032387;28;20014;-75
2023/09/12 04:03:32;;;;;;;92.68;35.08;;;;;;;;;;5032640;28;20521;-75
2023/09/12 04:05:58;;;;;;;80.43;33.65;;;;;;;;;;5032240;28;20033;-75
2023/09/12 04:08:24;;;;;;;75.03;33.47;;;;;;;;;;5032166;28;20034;-75
2023/09/12 04:10:51;;;;;;;80.53;35.22;;;;;;;;;;5032536;28;20088;-75
2023/09/12 04:13:17;;;;;;;88.68;36.33;;;;;;;;;;5032393;28;20053;-76
2023/09/12 04:15:43;;;;;;;83.68;34.90;;;;;;;;;;5032158;28;20049;-75
2023/09/12 04:18:09;;;;;;;78.78;33.75;;;;;;;;;;5032336;28;20051;-76
2023/09/12 04:20:35;;;;;;;82.43;34.40;;;;;;;;;;5032404;28;20022;-75
2023/09/12 04:23:04;;;;;;;81.95;34.92;;;;;;;;;;5032111;28;20028;-76
2023/09/12 04:25:33;;;;;;;95.70;37.50;;;;;;;;;;5032434;28;20017;-75
2023/09/12 04:27:59;;;;;;;84.65;37.08;;;;;;;;;;5029826;28;20041;-76
2023/09/12 04:30:25;;;;;;;93.30;36.92;;;;;;;;;;5016027;28;20030;-75
2023/09/12 04:32:51;;;;;;;115.13;39.17;;;;;;;;;;5015946;28;20083;-75
2023/09/12 04:35:19;;;;;;;96.45;37.05;;;;;;;;;;5016030;28;20030;-75
2023/09/12 04:37:45;;;;;;;95.85;37.42;;;;;;;;;;5016412;28;20045;-75
2023/09/12 04:40:11;;;;;;;88.70;36.67;;;;;;;;;;5015991;28;20452;-76
2023/09/12 04:42:37;;;;;;;90.30;38.53;;;;;;;;;;5020014;28;20540;-75
2023/09/12 04:45:03;;;;;;;89.22;36.70;;;;;;;;;;5055568;28;20021;-75
2023/09/12 04:47:29;;;;;;;113.57;39.78;;;;;;;;;;5054780;28;20574;-76
2023/09/12 04:49:55;;;;;;;93.15;37.83;;;;;;;;;;5035527;28;20084;-76
2023/09/12 04:52:21;;;;;;;101.95;38.55;;;;;;;;;;5035516;28;20021;-76
2023/09/12 04:54:47;;;;;;;92.45;38.20;;;;;;;;;;5035074;28;20049;-76
2023/09/12 04:57:13;;;;;;;93.85;38.42;;;;;;;;;;5035259;28;20028;-75
2023/09/12 04:59:39;;;;;;;76.82;33.40;;;;;;;;;;5035242;28;20075;-75
2023/09/12 05:02:05;;;;;;;86.95;36.05;;;;;;;;;;5035092;28;20497;-76
2023/09/12 05:04:31;;;;;;;59.00;25.08;;;;;;;;;;5035023;28;20028;-75
2023/09/12 05:06:58;;;;;;;88.97;35.45;;;;;;;;;;5035334;28;20061;-76
2023/09/12 05:09:25;;;;;;;92.07;34.25;;;;;;;;;;5035067;28;20029;-76
2023/09/12 05:11:51;;;;;;;88.78;35.10;;;;;;;;;;5034781;28;20514;-76
2023/09/12 05:14:17;;;;;;;86.22;35.40;;;;;;;;;;5034917;28;20029;-75
2023/09/12 05:16:43;;;;;;;87.10;37.67;;;;;;;;;;5035001;28;20021;-76
2023/09/12 05:19:09;;;;;;;83.03;34.60;;;;;;;;;;5034871;28;20025;-76
2023/09/12 05:21:35;;;;;;;72.72;35.17;;;;;;;;;;5034825;28;20057;-76
2023/09/12 05:24:01;;;;;;;70.05;35.60;;;;;;;;;;5035053;28;20036;-76
2023/09/12 05:26:27;;;;;;;73.68;34.38;;;;;;;;;;5034698;28;20018;-76
2023/09/12 05:28:53;;;;;;;69.47;34.35;;;;;;;;;;5034561;28;20041;-76
2023/09/12 05:31:19;;;;;;;69.18;34.28;;;;;;;;;;5034732;28;20083;-76
2023/09/12 05:33:45;;;;;;;64.55;33.72;;;;;;;;;;5034664;28;20076;-76
2023/09/12 05:36:11;;;;;;;70.43;33.58;;;;;;;;;;5034837;28;20529;-76
2023/09/12 05:38:37;;;;;;;65.38;33.35;;;;;;;;;;5034088;28;20040;-76
2023/09/12 05:41:03;;;;;;;60.90;31.55;;;;;;;;;;5034555;28;20048;-76
2023/09/12 05:43:29;;;;;;;58.40;31.48;;;;;;;;;;5043479;28;20111;-76
2023/09/12 05:45:57;;;;;;;57.45;31.80;;;;;;;;;;5057749;28;20032;-76
2023/09/12 05:48:23;;;;;;;54.08;30.95;;;;;;;;;;5055396;28;20119;-76
2023/09/12 05:50:49;;;;;;;58.25;31.08;;;;;;;;;;5058024;28;20041;-76
2023/09/12 05:53:15;;;;;;;58.47;30.08;;;;;;;;;;5060617;28;20398;-76
2023/09/12 05:55:41;;;;;;;55.50;30.83;;;;;;;;;;5059702;28;20045;-76
2023/09/12 05:58:07;;;;;;;51.58;29.88;;;;;;;;;;5056647;28;20441;-76
2023/09/12 06:00:34;;;;;;;51.53;28.77;;;;;;;;;;5054129;28;20036;-76
2023/09/12 06:03:00;;;;;;;51.85;28.98;;;;;;;;;;5053979;28;20023;-76
2023/09/12 06:05:26;;;;;;;53.25;29.65;;;;;;;;;;5054310;28;20029;-75
2023/09/12 06:07:52;;;;;;;49.38;27.75;;;;;;;;;;5053621;28;20036;-76
2023/09/12 06:10:18;;;;;;;48.65;27.33;;;;;;;;;;5053862;28;20025;-76
2023/09/12 06:12:44;;;;;;;47.80;27.83;;;;;;;;;;5053921;28;20032;-75
2023/09/12 06:15:10;;;;;;;53.05;29.73;;;;;;;;;;5053722;28;20017;-76
2023/09/12 06:17:36;;;;;;;46.72;28.48;;;;;;;;;;5053867;28;20063;-76
2023/09/12 06:20:06;;;;;;;44.30;26.95;;;;;;;;;;5053661;28;20424;-76
2023/09/12 06:22:32;;;;;;;49.92;28.05;;;;;;;;;;5053901;28;20017;-76
2023/09/12 06:24:58;;;;;;;45.33;26.77;;;;;;;;;;5053965;28;20544;-76
2023/09/12 06:27:24;;;;;;;46.10;27.77;;;;;;;;;;5053535;28;20037;-76
2023/09/12 06:29:50;;;;;;;45.88;27.83;;;;;;;;;;5053553;28;20389;-76
2023/09/12 06:32:17;;;;;;;49.95;27.80;;;;;;;;;;5053737;28;20485;-76
2023/09/12 06:34:44;;;;;;;46.40;27.02;;;;;;;;;;5053599;28;20378;-76
2023/09/12 06:37:13;;;;;;;46.78;26.63;;;;;;;;;;5054323;28;20033;-76
2023/09/12 06:39:39;;;;;;;47.13;27.27;;;;;;;;;;5053415;28;20090;-76
2023/09/12 06:42:06;;;;;;;47.85;26.52;;;;;;;;;;5053228;28;20021;-76
2023/09/12 06:44:32;;;;;;;50.22;28.42;;;;;;;;;;5053161;28;20402;-76
2023/09/12 06:46:58;;;;;;;48.95;27.15;;;;;;;;;;5053148;28;20664;-76
2023/09/12 06:49:24;;;;;;;46.13;27.40;;;;;;;;;;5053586;28;20036;-76
2023/09/12 06:51:50;;;;;;;42.83;25.83;;;;;;;;;;5052387;28;20487;-76
2023/09/12 06:54:16;;;;;;;46.10;28.05;;;;;;;;;;5052914;28;20025;-76
2023/09/12 06:56:42;;;;;;;49.75;29.42;;;;;;;;;;5053076;28;20100;-76
2023/09/12 06:59:08;;;;;;;44.75;27.30;;;;;;;;;;5052789;28;20025;-76
2023/09/12 07:01:35;;;;;;;43.08;27.15;;;;;;;;;;5052842;28;20021;-76
2023/09/12 07:04:01;;;;;;;43.20;26.20;;;;;;;;;;5052966;28;20021;-76
2023/09/12 07:06:27;;;;;;;37.50;24.77;;;;;;;;;;5052835;28;20053;-76
2023/09/12 07:08:53;;;;;;;37.90;24.55;;;;;;;;;;5052967;28;20476;-76
2023/09/12 07:11:19;;;;;;;37.45;22.75;;;;;;;;;;5052830;28;20104;-76
2023/09/12 07:13:45;;;;;;;35.83;22.25;;;;;;;;;;5053234;28;20031;-76
2023/09/12 07:16:12;;;;;;;30.83;19.77;;;;;;;;;;5053854;28;20112;-76
2023/09/12 07:18:38;;;;;;;28.80;19.65;;;;;;;;;;5052714;28;20029;-75
2023/09/12 07:21:06;;;;;;;32.28;20.13;;;;;;;;;;5052600;28;20021;-76
2023/09/12 07:23:32;;;;;;;27.65;19.85;;;;;;;;;;5052957;28;20024;-76
2023/09/12 07:25:59;;;;;;;24.08;17.95;;;;;;;;;;5052536;28;20371;-76
2023/09/12 07:28:25;;;;;;;27.23;19.35;;;;;;;;;;5034768;28;20086;-76
2023/09/12 07:30:51;;;;;;;28.10;18.92;;;;;;;;;;5052681;28;20463;-76
2023/09/12 07:33:17;;;;;;;25.17;17.40;;;;;;;;;;5052694;28;20025;-76
2023/09/12 07:35:43;;;;;;;25.33;17.08;;;;;;;;;;5052636;28;20403;-76
2023/09/12 07:38:09;;;;;;;25.70;17.10;;;;;;;;;;5052505;28;20106;-76
2023/09/12 07:40:35;;;;;;;24.20;17.38;;;;;;;;;;5053095;28;20028;-76
2023/09/12 07:43:02;;;;;;;26.05;17.35;;;;;;;;;;5053420;28;20025;-77
2023/09/12 07:45:29;;;;;;;24.65;17.58;;;;;;;;;;5052669;28;20021;-76
2023/09/12 07:47:55;;;;;;;25.55;16.80;;;;;;;;;;5052524;28;20061;-76
2023/09/12 07:50:21;;;;;;;24.38;17.13;;;;;;;;;;5052687;28;20028;-76
2023/09/12 07:52:47;;;;;;;27.65;18.38;;;;;;;;;;5052406;28;20107;-76
2023/09/12 07:55:13;;;;;;;21.33;16.05;;;;;;;;;;5051904;28;20045;-77
2023/09/12 07:57:39;;;;;;;24.70;16.67;;;;;;;;;;5052297;28;20040;-76
2023/09/12 08:00:09;;;;;;;21.63;15.82;;;;;;;;;;5051236;28;20112;-76
2023/09/12 08:02:36;;;;;;;;;;;;;;;;;;5055537;28;20017;-76
2023/09/12 08:05:02;;;;;;;26.17;17.08;;;;;;;;;;5056569;28;19911;-77
2023/09/12 08:07:28;;;;;;;24.38;16.23;;;;;;;;;;5055949;28;20033;-76
2023/09/12 08:09:55;;;;;;;23.67;16.23;;;;;;;;;;5055837;28;20087;-76
2023/09/12 08:12:22;;;;;;;22.48;15.20;;;;;;;;;;5056428;28;20454;-77
2023/09/12 08:14:48;;;;;;;23.90;15.60;;;;;;;;;;5055789;28;20021;-77
2023/09/12 08:17:15;;;;;;;25.48;15.13;;;;;;;;;;5055138;28;20028;-76
2023/09/12 08:19:41;;;;;;;17.55;13.88;;;;;;;;;;5055185;28;20162;-76
2023/09/12 08:22:07;;;;;;;21.63;14.45;;;;;;;;;;5055959;28;20448;-76
2023/09/12 08:24:33;;;;;;;21.73;14.73;;;;;;;;;;5038131;28;20108;-77
2023/09/12 08:27:00;;;;;;;21.77;15.23;;;;;;;;;;5055843;28;20081;-77
2023/09/12 08:29:26;;;;;;;20.90;14.45;;;;;;;;;;5055886;28;20044;-76
2023/09/12 08:31:53;;;;;;;21.30;15.27;;;;;;;;;;5055931;28;20379;-77
2023/09/12 08:34:19;;;;;;;22.70;16.08;;;;;;;;;;5056042;28;20049;-76
2023/09/12 08:36:45;;;;;;;19.42;15.25;;;;;;;;;;5055847;28;20029;-77
2023/09/12 08:39:12;;;;;;;21.75;15.48;;;;;;;;;;5055683;28;20435;-77
2023/09/12 08:41:38;;;;;;;24.50;17.00;;;;;;;;;;5055568;28;20039;-77
2023/09/12 08:44:08;;;;;;;23.42;16.05;;;;;;;;;;5055711;28;20059;-76
2023/09/12 08:46:37;;;;;;;22.38;14.93;;;;;;;;;;5055789;28;20051;-76
2023/09/12 08:49:04;;;;;;;21.83;15.40;;;;;;;;;;5037773;28;20029;-76
2023/09/12 08:51:32;;;;;;;24.13;16.17;;;;;;;;;;5055714;28;20299;-76
2023/09/12 08:53:58;;;;;;;20.98;14.85;;;;;;;;;;5055961;28;20021;-76
2023/09/12 08:56:24;;;;;;;22.55;15.70;;;;;;;;;;5055467;28;20555;-76
2023/09/12 08:58:51;;;;;;;20.60;14.32;;;;;;;;;;5055662;28;20390;-76
2023/09/12 09:01:18;;;;;;;23.38;15.82;;;;;;;;;;5055511;28;20100;-77
2023/09/12 09:03:45;;;;;;;22.05;14.32;;;;;;;;;;5055491;28;20044;-76
2023/09/12 09:06:11;;;;;;;23.35;14.45;;;;;;;;;;5054706;28;20044;-77
2023/09/12 09:08:38;;;;;;;21.98;13.93;;;;;;;;;;5055150;28;20115;-76
2023/09/12 09:11:06;;;;;;;18.77;13.73;;;;;;;;;;5054568;28;20403;-76
2023/09/12 09:13:32;;;;;;;20.60;14.15;;;;;;;;;;5053516;28;20017;-76
2023/09/12 09:16:18;;;;;;;20.23;14.27;;;;;;;;;;5054373;28;20406;-76
2023/09/12 09:18:59;;;;;;;20.33;14.10;;;;;;;;;;5054548;28;20112;-76
2023/09/12 09:21:33;;;;;;;18.02;13.65;;;;;;;;;;5054317;28;20096;-76
2023/09/12 09:23:59;;;;;;;18.95;13.57;;;;;;;;;;5054726;28;20048;-76
2023/09/12 09:26:26;;;;;;;18.17;13.07;;;;;;;;;;5054864;28;20016;-77
2023/09/12 09:29:06;;;;;;;18.00;12.80;;;;;;;;;;5054956;28;20044;-77
2023/09/12 09:31:33;;;;;;;19.63;13.55;;;;;;;;;;5054852;28;20079;-76
2023/09/12 09:33:59;;;;;;;18.35;13.80;;;;;;;;;;5055011;28;20025;-76
2023/09/12 09:36:25;;;;;;;16.17;12.57;;;;;;;;;;5054998;28;20025;-77
2023/09/12 09:38:52;;;;;;;17.88;13.02;;;;;;;;;;5037072;28;20029;-77
2023/09/12 09:41:24;;;;;;;20.08;13.95;;;;;;;;;;5054463;28;20058;-77
2023/09/12 09:43:53;;;;;;;18.13;12.65;;;;;;;;;;5054793;28;20150;-76
2023/09/12 09:46:19;;;;;;;18.33;12.50;;;;;;;;;;5054564;28;20021;-77
2023/09/12 09:48:52;;;;;;;16.58;12.15;;;;;;;;;;5054398;28;20463;-77
2023/09/12 09:51:18;;;;;;;18.27;11.63;;;;;;;;;;5054520;28;20025;-77
2023/09/12 09:53:44;;;;;;;18.83;13.07;;;;;;;;;;5054467;28;20028;-76
2023/09/12 09:56:11;;;;;;;16.92;12.57;;;;;;;;;;5054177;28;20079;-77
2023/09/12 09:58:42;;;;;;;16.73;12.80;;;;;;;;;;5054403;28;20538;-76
2023/09/12 10:01:09;;;;;;;17.88;12.40;;;;;;;;;;5054274;28;20091;-77
2023/09/12 10:03:37;;;;;;;17.40;12.32;;;;;;;;;;5054219;28;20052;-77
2023/09/12 10:06:04;;;;;;;18.23;12.25;;;;;;;;;;5054484;28;20021;-77
2023/09/12 10:08:32;;;;;;;18.25;12.43;;;;;;;;;;5054141;28;20037;-76
2023/09/12 10:10:59;;;;;;;18.73;12.55;;;;;;;;;;5053951;28;20025;-76
2023/09/12 10:13:32;;;;;;;16.70;13.00;;;;;;;;;;5053770;28;20018;-76
2023/09/12 10:15:59;;;;;;;17.48;12.93;;;;;;;;;;5054102;28;20653;-76
2023/09/12 10:18:25;;;;;;;16.95;12.48;;;;;;;;;;5053661;28;20060;-77
2023/09/12 10:20:53;;;;;;;16.33;12.45;;;;;;;;;;5053846;28;20417;-76
2023/09/12 10:23:22;;;;;;;17.90;12.73;;;;;;;;;;5053890;28;20031;-77
2023/09/12 10:25:49;;;;;;;16.88;13.90;;;;;;;;;;5035701;28;20021;-77
2023/09/12 10:28:15;;;;;;;15.18;11.38;;;;;;;;;;5053661;28;20040;-76
2023/09/12 10:30:45;;;;;;;14.73;11.93;;;;;;;;;;5053684;28;20430;-76
2023/09/12 10:33:12;;;;;;;19.27;12.50;;;;;;;;;;5053946;28;20082;-77
2023/09/12 10:35:38;;;;;;;21.13;12.25;;;;;;;;;;5053584;28;20021;-76
2023/09/12 10:38:05;;;;;;;20.33;12.85;;;;;;;;;;5053627;28;20111;-77
2023/09/12 10:40:32;;;;;;;18.55;12.20;;;;;;;;;;5053481;28;20421;-77
2023/09/12 10:43:00;;;;;;;17.38;11.77;;;;;;;;;;5053405;28;20021;-77
2023/09/12 10:45:26;;;;;;;17.27;11.65;;;;;;;;;;5053306;28;20056;-77
2023/09/12 10:47:53;;;;;;;17.30;12.05;;;;;;;;;;5053400;28;20024;-77
2023/09/12 10:50:20;;;;;;;16.15;12.13;;;;;;;;;;5053296;28;20430;-76
2023/09/12 10:52:46;;;;;;;17.98;13.93;;;;;;;;;;5053405;28;20448;-77
2023/09/12 10:55:19;;;;;;;18.73;13.50;;;;;;;;;;5053350;28;20033;-77
2023/09/12 10:58:03;;;;;;;18.75;12.45;;;;;;;;;;5052080;28;20034;-76
2023/09/12 11:00:32;;;;;;;14.90;10.40;;;;;;;;;;5032991;28;20021;-76
2023/09/12 11:02:58;;;;;;;12.40;10.93;;;;;;;;;;5033674;28;20325;-76
2023/09/12 11:05:31;;;;;;;13.95;9.98;;;;;;;;;;5033269;28;20418;-77
2023/09/12 11:08:00;;;;;;;12.27;9.75;;;;;;;;;;5033280;28;20025;-76
2023/09/12 11:10:27;;;;;;;11.55;9.25;;;;;;;;;;5033146;28;20091;-77
2023/09/12 11:12:56;;;;;;;14.15;9.40;;;;;;;;;;5015228;28;20583;-76
2023/09/12 11:15:26;;;;;;;12.27;9.52;;;;;;;;;;5032994;28;20022;-76
2023/09/12 11:18:03;;;;;;;13.90;8.88;;;;;;;;;;5032866;28;20475;-77
2023/09/12 11:20:49;;;;;;;10.13;8.93;;;;;;;;;;5033101;28;20368;-76
2023/09/12 11:23:15;;;;;;;9.38;8.38;;;;;;;;;;5032933;28;20021;-77
2023/09/12 11:25:41;;;;;;;10.02;8.02;;;;;;;;;;5032625;28;20376;-77
2023/09/12 11:28:07;;;;;;;11.18;7.68;;;;;;;;;;5032957;28;20107;-76
2023/09/12 11:30:34;;;;;;;10.45;7.60;;;;;;;;;;5032819;28;20112;-77
2023/09/12 11:33:03;;;;;;;11.18;7.70;;;;;;;;;;5032890;28;20033;-77
2023/09/12 11:35:36;;;;;;;8.65;6.85;;;;;;;;;;5032737;28;20025;-77
2023/09/12 11:38:02;;;;;;;8.15;6.10;;;;;;;;;;5032052;28;20033;-77
2023/09/12 11:40:35;;;;;;;8.23;6.60;;;;;;;;;;5032795;28;20021;-76
2023/09/12 11:43:05;;;;;;;7.55;6.28;;;;;;;;;;5032702;28;20112;-77
2023/09/12 11:45:32;;;;;;;8.02;5.85;;;;;;;;;;5032730;28;20129;-77
2023/09/12 11:47:58;;;;;;;7.30;6.13;;;;;;;;;;5032749;28;20171;-77
2023/09/12 11:50:27;;;;;;;6.90;6.20;;;;;;;;;;5014880;28;20117;-76
2023/09/12 11:53:03;;;;;;;7.07;6.03;;;;;;;;;;5032871;28;20041;-77
2023/09/12 11:55:37;;;;;;;6.65;5.05;;;;;;;;;;5032299;28;20049;-77
2023/09/12 11:58:03;;;;;;;6.03;5.43;;;;;;;;;;5032300;28;20518;-77
2023/09/12 12:00:29;;;;;;;7.13;5.53;;;;;;;;;;5032807;28;20029;-77
2023/09/12 12:02:55;;;;;;;7.03;5.80;;;;;;;;;;5032499;28;20022;-77
2023/09/12 12:05:22;;;;;;;7.05;6.13;;;;;;;;;;5032386;28;20033;-77
2023/09/12 12:07:49;;;;;;;7.40;5.07;;;;;;;;;;5032524;28;20022;-77
2023/09/12 12:10:15;;;;;;;6.97;5.25;;;;;;;;;;5032538;28;20040;-77
2023/09/12 12:12:42;;;;;;;5.72;5.10;;;;;;;;;;5032283;28;20021;-77
2023/09/12 12:15:12;;;;;;;10.77;6.03;;;;;;;;;;5032154;28;20105;-76
2023/09/12 12:17:40;;;;;;;6.90;5.50;;;;;;;;;;5032172;28;20049;-76
2023/09/12 12:20:09;;;;;;;6.33;4.83;;;;;;;;;;5032337;28;20024;-77
2023/09/12 12:22:37;;;;;;;7.57;5.95;;;;;;;;;;5032757;28;20021;-76
2023/09/12 12:25:07;;;;;;;5.80;4.63;;;;;;;;;;5032471;28;20026;-77
2023/09/12 12:27:33;;;;;;;7.40;5.25;;;;;;;;;;5032008;28;20030;-77
2023/09/12 12:29:59;;;;;;;7.07;5.55;;;;;;;;;;5032233;28;20043;-76
2023/09/12 12:32:25;;;;;;;7.05;6.20;;;;;;;;;;5031937;28;20072;-77
2023/09/12 12:34:51;;;;;;;5.68;4.93;;;;;;;;;;5032307;28;20021;-76
2023/09/12 12:37:17;;;;;;;9.32;5.43;;;;;;;;;;5032057;28;20025;-77
2023/09/12 12:39:43;;;;;;;5.88;4.60;;;;;;;;;;5031995;28;20517;-77
2023/09/12 12:42:10;;;;;;;5.63;4.35;;;;;;;;;;5031995;28;20105;-77
2023/09/12 12:44:40;;;;;;;6.60;4.60;;;;;;;;;;5031829;28;20018;-77
2023/09/12 12:47:06;;;;;;;9.25;4.40;;;;;;;;;;5031551;28;20028;-76
2023/09/12 12:49:38;;;;;;;4.82;4.25;;;;;;;;;;5035370;28;20030;-77
2023/09/12 12:52:04;;;;;;;6.45;4.88;;;;;;;;;;5035754;28;20022;-77
2023/09/12 12:54:33;;;;;;;5.93;4.03;;;;;;;;;;5034962;28;20036;-77
2023/09/12 12:56:59;;;;;;;6.35;4.68;;;;;;;;;;5035554;28;20028;-77
2023/09/12 12:59:25;;;;;;;6.50;5.00;;;;;;;;;;5035478;28;20108;-77
2023/09/12 13:01:51;;;;;;;6.57;4.88;;;;;;;;;;5035212;28;20457;-77
2023/09/12 13:04:17;;;;;;;5.90;4.40;;;;;;;;;;5035444;28;20018;-77
2023/09/12 13:06:44;;;;;;;6.53;4.47;;;;;;;;;;5035150;28;20029;-77
2023/09/12 13:09:12;;;;;;;8.20;4.32;;;;;;;;;;5035107;28;20734;-77
2023/09/12 13:29:41;;;;;;;5.95;5.00;;;;;;;;;;5017979;22;20045;-77
2023/09/12 13:32:07;;;;;;;5.50;4.10;;;;;;;;;;5016076;28;20026;-77
2023/09/12 13:34:33;;;;;;;4.40;3.70;;;;;;;;;;5035340;28;20475;-76
2023/09/12 13:36:59;;;;;;;5.18;3.67;;;;;;;;;;5035448;28;20029;-77
2023/09/12 13:39:25;;;;;;;5.30;4.13;;;;;;;;;;5017007;28;20071;-76
2023/09/12 13:41:51;;;;;;;5.88;3.67;;;;;;;;;;5034548;28;20021;-76
2023/09/12 13:44:18;;;;;;;7.18;3.55;;;;;;;;;;5034420;28;20113;-76
2023/09/12 13:46:45;;;;;;;5.90;3.72;;;;;;;;;;5034330;28;20057;-77
2023/09/12 13:49:11;;;;;;;5.43;3.67;;;;;;;;;;5034514;28;20026;-77
2023/09/12 13:51:38;;;;;;;5.55;3.15;;;;;;;;;;5034266;28;20360;-76
2023/09/12 13:54:04;;;;;;;5.53;3.25;;;;;;;;;;5034548;28;20064;-76
2023/09/12 13:56:31;;;;;;;5.57;3.33;;;;;;;;;;5034274;28;20030;-76
2023/09/12 13:58:57;;;;;;;3.80;3.00;;;;;;;;;;5033928;28;20648;-77
2023/09/12 14:01:23;;;;;;;6.20;3.30;;;;;;;;;;5033917;28;20021;-77
2023/09/12 14:03:49;;;;;;;4.72;3.50;;;;;;;;;;5034322;28;20037;-77
2023/09/12 14:06:16;;;;;;;4.97;3.28;;;;;;;;;;5033828;28;20033;-77
2023/09/12 14:08:42;;;;;;;6.32;3.47;;;;;;;;;;5034036;28;20060;-77
2023/09/12 14:11:08;;;;;;;3.88;2.72;;;;;;;;;;5034056;28;20579;-76
2023/09/12 14:13:34;;;;;;;3.33;2.88;;;;;;;;;;5034007;28;20022;-77
2023/09/12 14:16:00;;;;;;;3.95;2.85;;;;;;;;;;5033477;28;20033;-76
2023/09/12 14:18:26;;;;;;;4.68;2.85;;;;;;;;;;5033280;28;20084;-77
2023/09/12 14:20:52;;;;;;;4.32;2.75;;;;;;;;;;5033841;28;20113;-77
2023/09/12 14:23:18;;;;;;;4.53;2.92;;;;;;;;;;5033787;28;20025;-77
2023/09/12 14:25:44;;;;;;;3.65;2.67;;;;;;;;;;5033820;28;20100;-77
2023/09/12 14:28:10;;;;;;;3.25;2.50;;;;;;;;;;5015772;28;20116;-77
2023/09/12 14:30:37;;;;;;;6.03;2.80;;;;;;;;;;5033356;28;20052;-77
2023/09/12 14:33:03;;;;;;;3.90;2.50;;;;;;;;;;5033849;28;20018;-77
2023/09/12 14:35:30;;;;;;;4.57;2.80;;;;;;;;;;5033276;28;20033;-77
2023/09/12 14:37:56;;;;;;;4.95;3.20;;;;;;;;;;5033253;28;20025;-76
2023/09/12 14:40:22;;;;;;;4.07;2.80;;;;;;;;;;5015685;28;20028;-77